createdAt,value
2018-12-03T00:01:21.685Z,76.21
2018-12-03T00:03:53.213Z,76.13
2018-12-03T00:06:24.085Z,76.09
2018-12-03T00:08:54.761Z,76.03
2018-12-03T00:11:25.737Z,75.88
2018-12-03T00:13:57.130Z,75.95
2018-12-03T00:16:27.798Z,75.95
2018-12-03T00:18:58.536Z,75.99
2018-12-03T00:21:29.251Z,75.96
2018-12-03T00:24:00.257Z,76.00
2018-12-03T00:26:30.944Z,76.01
2018-12-03T00:29:01.632Z,75.92
2018-12-03T00:31:32.314Z,75.96
2018-12-03T00:34:03.305Z,76.05
2018-12-03T00:36:34.006Z,76.06
2018-12-03T00:39:05.679Z,76.03
2018-12-03T00:41:36.649Z,76.14
2018-12-03T00:44:08.079Z,76.17
2018-12-03T00:46:38.790Z,76.08
2018-12-03T00:49:08.852Z,76.09
2018-12-03T00:51:39.558Z,76.08
2018-12-03T00:54:10.334Z,76.16
2018-12-03T00:56:41.050Z,76.20
2018-12-03T00:59:12.084Z,76.12
2018-12-03T01:01:42.785Z,76.11
2018-12-03T01:04:13.482Z,76.06
2018-12-03T01:06:44.153Z,76.04
2018-12-03T01:09:14.881Z,76.09
2018-12-03T01:11:45.617Z,76.01
2018-12-03T01:14:16.712Z,75.94
2018-12-03T01:16:47.458Z,75.98
2018-12-03T01:19:18.487Z,76.05
2018-12-03T01:21:49.460Z,76.04
2018-12-03T01:24:20.187Z,76.00
2018-12-03T01:26:51.129Z,75.97
2018-12-03T01:29:22.109Z,75.93
2018-12-03T01:31:53.125Z,75.88
2018-12-03T01:34:23.825Z,75.94
2018-12-03T01:36:54.514Z,75.89
2018-12-03T01:39:25.308Z,75.87
2018-12-03T01:41:56.470Z,75.92
2018-12-03T01:44:27.175Z,75.91
2018-12-03T01:46:57.867Z,76.07
2018-12-03T01:49:29.139Z,76.20
2018-12-03T01:51:59.853Z,76.26
2018-12-03T01:54:30.576Z,76.25
2018-12-03T01:57:01.262Z,76.17
2018-12-03T01:59:31.958Z,76.08
2018-12-03T02:02:02.727Z,75.93
2018-12-03T02:04:33.437Z,75.77
2018-12-03T02:07:04.120Z,75.37
2018-12-03T02:09:34.916Z,75.28
2018-12-03T02:12:05.716Z,75.19
2018-12-03T02:14:36.462Z,75.07
2018-12-03T02:17:07.208Z,74.94
2018-12-03T02:19:37.907Z,74.80
2018-12-03T02:22:08.665Z,74.74
2018-12-03T02:24:39.673Z,74.70
2018-12-03T02:27:11.585Z,74.70
2018-12-03T02:29:42.287Z,74.71
2018-12-03T02:32:12.997Z,74.70
2018-12-03T02:34:44.127Z,74.70
2018-12-03T02:37:14.824Z,74.53
2018-12-03T02:39:46.079Z,74.41
2018-12-03T02:42:17.426Z,74.39
2018-12-03T02:44:48.075Z,74.42
2018-12-03T02:47:19.034Z,74.41
2018-12-03T02:49:49.746Z,74.41
2018-12-03T02:52:20.795Z,74.47
2018-12-03T02:54:51.498Z,74.47
2018-12-03T02:57:22.184Z,74.45
2018-12-03T02:59:53.251Z,74.57
2018-12-03T03:02:23.967Z,74.62
2018-12-03T03:04:55.366Z,74.76
2018-12-03T03:07:26.107Z,74.72
2018-12-03T03:09:57.222Z,74.88
2018-12-03T03:12:27.919Z,74.96
2018-12-03T03:14:58.590Z,75.03
2018-12-03T03:17:30.111Z,75.19
2018-12-03T03:20:01.095Z,75.27
2018-12-03T03:22:31.814Z,75.25
2018-12-03T03:25:02.577Z,75.16
2018-12-03T03:27:33.278Z,75.11
2018-12-03T03:30:04.206Z,75.01
2018-12-03T03:32:35.222Z,75.02
2018-12-03T03:35:06.514Z,75.06
2018-12-03T03:37:37.185Z,75.09
2018-12-03T03:40:13.089Z,75.11
2018-12-03T03:42:44.953Z,75.28
2018-12-03T03:45:24.138Z,75.33
2018-12-03T03:47:54.849Z,75.34
2018-12-03T03:50:25.836Z,75.47
2018-12-03T03:52:56.531Z,75.64
2018-12-03T03:55:27.507Z,75.71
2018-12-03T03:57:58.492Z,75.72
2018-12-03T04:00:29.135Z,75.77
2018-12-03T04:02:59.836Z,75.82
2018-12-03T04:05:30.517Z,76.05
2018-12-03T04:08:01.199Z,76.12
2018-12-03T04:10:32.559Z,76.16
2018-12-03T04:13:03.510Z,76.28
2018-12-03T04:15:34.201Z,76.43
2018-12-03T04:18:05.003Z,76.43
2018-12-03T04:20:35.711Z,76.48
2018-12-03T04:23:06.608Z,76.42
2018-12-03T04:25:37.525Z,76.54
2018-12-03T04:28:08.636Z,76.63
2018-12-03T04:30:39.340Z,76.67
2018-12-03T04:33:12.579Z,76.75
2018-12-03T04:35:43.635Z,76.74
2018-12-03T04:38:14.308Z,76.72
2018-12-03T04:40:45.328Z,76.75
2018-12-03T04:43:16.005Z,76.84
2018-12-03T04:45:46.702Z,76.91
2018-12-03T04:48:17.390Z,77.05
2018-12-03T04:50:48.408Z,77.15
2018-12-03T04:53:19.109Z,77.17
2018-12-03T04:55:49.840Z,77.13
2018-12-03T04:58:20.805Z,77.06
2018-12-03T05:00:51.789Z,77.04
2018-12-03T05:03:22.512Z,77.02
2018-12-03T05:05:53.434Z,76.98
2018-12-03T05:08:24.086Z,77.11
2018-12-03T05:10:55.074Z,77.23
2018-12-03T05:13:25.731Z,77.34
2018-12-03T05:15:56.482Z,77.49
2018-12-03T05:18:27.489Z,77.55
2018-12-03T05:20:58.171Z,77.65
2018-12-03T05:23:29.109Z,77.67
2018-12-03T05:26:00.179Z,77.74
2018-12-03T05:28:30.879Z,77.65
2018-12-03T05:31:01.572Z,77.73
2018-12-03T05:33:32.639Z,77.69
2018-12-03T05:36:03.323Z,77.63
2018-12-03T05:38:34.037Z,77.64
2018-12-03T05:41:05.091Z,77.63
2018-12-03T05:43:36.424Z,77.52
2018-12-03T05:46:07.175Z,77.43
2018-12-03T05:48:38.126Z,77.34
2018-12-03T05:51:08.942Z,77.20
2018-12-03T05:53:39.622Z,77.19
2018-12-03T05:56:10.318Z,77.17
2018-12-03T05:58:40.979Z,77.23
2018-12-03T06:01:11.696Z,77.29
2018-12-03T06:03:42.395Z,77.32
2018-12-03T06:06:13.134Z,77.35
2018-12-03T06:08:44.149Z,77.46
2018-12-03T06:11:14.834Z,77.52
2018-12-03T06:13:45.566Z,77.64
2018-12-03T06:16:16.204Z,77.74
2018-12-03T06:18:46.911Z,77.84
2018-12-03T06:21:17.628Z,77.89
2018-12-03T06:23:48.712Z,77.97
2018-12-03T06:26:19.732Z,78.01
2018-12-03T06:28:50.415Z,78.06
2018-12-03T06:31:21.123Z,78.10
2018-12-03T06:33:52.201Z,78.14
2018-12-03T06:36:23.221Z,78.20
2018-12-03T06:38:54.314Z,78.33
2018-12-03T06:41:25.112Z,78.48
2018-12-03T06:43:56.061Z,78.54
2018-12-03T06:46:26.718Z,78.64
2018-12-03T06:48:57.709Z,78.73
2018-12-03T06:51:28.443Z,78.76
2018-12-03T06:53:59.120Z,78.78
2018-12-03T06:56:29.820Z,78.80
2018-12-03T06:59:00.496Z,78.78
2018-12-03T07:01:31.221Z,78.80
2018-12-03T07:04:01.930Z,78.90
2018-12-03T07:06:32.641Z,78.94
2018-12-03T07:09:03.421Z,78.98
2018-12-03T07:11:34.091Z,78.99
2018-12-03T07:14:04.856Z,78.96
2018-12-03T07:16:36.194Z,78.85
2018-12-03T07:19:07.737Z,78.82
2018-12-03T07:21:38.782Z,78.85
2018-12-03T07:24:09.825Z,78.78
2018-12-03T07:26:40.545Z,78.68
2018-12-03T07:29:11.248Z,78.57
2018-12-03T07:31:42.289Z,78.35
2018-12-03T07:34:12.943Z,78.19
2018-12-03T07:36:43.695Z,77.93
2018-12-03T07:39:14.685Z,77.66
2018-12-03T07:41:45.385Z,77.40
2018-12-03T07:44:16.067Z,76.87
2018-12-03T07:46:46.818Z,76.56
2018-12-03T07:49:17.517Z,76.38
2018-12-03T07:51:48.225Z,76.28
2018-12-03T07:54:19.230Z,76.60
2018-12-03T07:56:50.192Z,76.91
2018-12-03T07:59:20.953Z,77.09
2018-12-03T08:01:52.298Z,77.32
2018-12-03T08:04:23.006Z,77.13
2018-12-03T08:06:53.722Z,76.53
2018-12-03T08:09:24.387Z,76.42
2018-12-03T08:11:55.129Z,76.39
2018-12-03T08:14:25.841Z,76.36
2018-12-03T08:16:56.558Z,76.34
2018-12-03T08:19:27.734Z,76.36
2018-12-03T08:21:58.476Z,76.41
2018-12-03T08:24:29.169Z,76.18
2018-12-03T08:27:01.001Z,75.94
2018-12-03T08:29:31.782Z,75.86
2018-12-03T08:32:02.511Z,75.77
2018-12-03T08:34:33.489Z,75.59
2018-12-03T08:37:04.295Z,75.58
2018-12-03T08:39:35.040Z,75.60
2018-12-03T08:42:05.734Z,75.28
2018-12-03T08:44:36.446Z,75.02
2018-12-03T08:47:14.840Z,75.08
2018-12-03T08:49:45.539Z,75.04
2018-12-03T08:52:16.419Z,74.85
2018-12-03T08:54:47.122Z,74.84
2018-12-03T08:57:17.796Z,74.83
2018-12-03T08:59:48.497Z,74.98
2018-12-03T09:02:19.556Z,75.14
2018-12-03T09:04:54.368Z,75.49
2018-12-03T09:07:25.105Z,75.66
2018-12-03T09:09:55.819Z,75.54
2018-12-03T09:12:26.813Z,75.69
2018-12-03T09:14:57.516Z,75.74
2018-12-03T09:17:28.186Z,75.29
2018-12-03T09:19:58.883Z,74.70
2018-12-03T09:22:33.597Z,74.03
2018-12-03T09:25:04.492Z,73.19
2018-12-03T09:27:35.179Z,72.72
2018-12-03T09:30:07.014Z,72.30
2018-12-03T09:32:37.738Z,71.82
2018-12-03T09:35:10.591Z,71.15
2018-12-03T09:37:41.331Z,70.51
2018-12-03T09:40:26.832Z,70.05
2018-12-03T09:42:57.774Z,69.69
2018-12-03T09:45:28.741Z,69.28
2018-12-03T09:47:59.471Z,69.11
2018-12-03T09:50:30.629Z,68.94
2018-12-03T09:53:01.322Z,68.27
2018-12-03T09:55:35.849Z,67.75
2018-12-03T09:58:18.177Z,67.22
2018-12-03T10:00:49.473Z,65.75
2018-12-03T10:03:29.924Z,64.74
2018-12-03T10:06:07.199Z,64.26
2018-12-03T10:08:37.902Z,64.23
2018-12-03T10:11:08.628Z,65.28
2018-12-03T10:17:27.172Z,66.41
2018-12-03T10:19:58.234Z,66.33
2018-12-03T10:22:28.903Z,65.03
2018-12-03T10:24:59.589Z,64.50
2018-12-03T10:27:30.306Z,63.97
2018-12-03T10:30:05.113Z,63.68
2018-12-03T10:32:36.120Z,64.75
2018-12-03T10:35:07.342Z,64.13
2018-12-03T10:37:38.022Z,63.75
2018-12-03T10:40:20.820Z,63.20
2018-12-03T10:42:52.169Z,62.88
2018-12-03T10:45:26.458Z,61.93
2018-12-03T10:47:58.761Z,61.57
2018-12-03T10:50:29.875Z,61.39
2018-12-03T10:53:00.734Z,61.43
2018-12-03T10:55:31.856Z,61.50
2018-12-03T10:58:02.651Z,61.44
2018-12-03T11:00:51.556Z,61.32
2018-12-03T11:03:39.928Z,60.92
2018-12-03T11:06:17.636Z,61.38
2018-12-03T11:08:48.965Z,61.89
2018-12-03T11:11:19.985Z,62.83
2018-12-03T11:13:50.875Z,63.56
2018-12-03T11:16:34.046Z,64.30
2018-12-03T11:19:05.148Z,64.31
2018-12-03T11:21:36.167Z,64.42
2018-12-03T11:24:08.223Z,64.65
2018-12-03T11:26:43.018Z,64.11
2018-12-03T11:29:14.278Z,63.04
2018-12-03T11:31:45.419Z,62.79
2018-12-03T11:34:22.599Z,62.15
2018-12-03T11:36:59.619Z,62.11
2018-12-03T11:39:59.716Z,61.79
2018-12-03T11:42:38.734Z,62.16
2018-12-03T11:45:11.627Z,62.02
2018-12-03T11:47:42.353Z,60.40
2018-12-03T11:50:14.627Z,59.99
2018-12-03T11:52:45.409Z,59.91
2018-12-03T11:55:16.104Z,60.09
2018-12-03T11:57:47.082Z,59.69
2018-12-03T12:00:18.069Z,58.81
2018-12-03T12:02:48.795Z,57.67
2018-12-03T12:05:20.047Z,57.08
2018-12-03T12:07:50.846Z,56.69
2018-12-03T12:10:22.243Z,56.67
2018-12-03T12:12:53.174Z,57.31
2018-12-03T12:15:23.885Z,57.89
2018-12-03T12:17:54.572Z,58.10
2018-12-03T12:20:25.583Z,58.89
2018-12-03T12:22:56.576Z,59.32
2018-12-03T12:25:27.286Z,59.68
2018-12-03T12:27:59.994Z,59.60
2018-12-03T12:30:30.726Z,59.63
2018-12-03T12:33:01.642Z,59.59
2018-12-03T12:35:33.056Z,59.60
2018-12-03T12:38:03.848Z,59.10
2018-12-03T12:40:34.535Z,58.77
2018-12-03T12:43:05.212Z,60.80
2018-12-03T12:45:52.782Z,58.25
2018-12-03T12:48:23.482Z,57.03
2018-12-03T12:50:54.195Z,56.76
2018-12-03T12:53:25.027Z,56.55
2018-12-03T12:55:56.230Z,56.46
2018-12-03T12:58:26.924Z,56.17
2018-12-03T13:00:57.847Z,56.26
2018-12-03T13:03:28.556Z,56.30
2018-12-03T13:05:59.580Z,56.48
2018-12-03T13:08:30.563Z,56.62
2018-12-03T13:11:01.259Z,56.62
2018-12-03T13:13:31.987Z,56.64
2018-12-03T13:16:03.016Z,56.88
2018-12-03T13:18:33.689Z,57.18
2018-12-03T13:21:04.393Z,57.58
2018-12-03T13:23:35.719Z,58.03
2018-12-03T13:26:07.674Z,57.83
2018-12-03T13:28:38.323Z,57.91
2018-12-03T13:31:09.008Z,58.42
2018-12-03T13:33:39.755Z,58.26
2018-12-03T13:36:12.593Z,58.53
2018-12-03T13:38:43.302Z,58.89
2018-12-03T13:41:14.075Z,58.93
2018-12-03T13:43:44.766Z,58.96
2018-12-03T13:46:15.803Z,58.90
2018-12-03T13:48:46.511Z,58.99
2018-12-03T13:51:17.219Z,58.94
2018-12-03T13:53:48.467Z,58.94
2018-12-03T13:56:19.123Z,58.33
2018-12-03T13:58:49.852Z,58.53
2018-12-03T14:01:20.588Z,58.50
2018-12-03T14:03:53.139Z,58.55
2018-12-03T14:07:21.924Z,58.54
2018-12-03T14:10:29.202Z,58.66
2018-12-03T14:13:44.140Z,58.29
2018-12-03T14:17:08.965Z,58.48
2018-12-03T14:19:40.918Z,58.33
2018-12-03T14:22:25.433Z,58.62
2018-12-03T14:24:56.137Z,58.91
2018-12-03T14:27:27.121Z,59.15
2018-12-03T14:29:57.899Z,59.18
2018-12-03T14:32:29.271Z,59.32
2018-12-03T14:34:59.959Z,59.75
2018-12-03T14:37:30.728Z,59.82
2018-12-03T14:40:01.450Z,59.87
2018-12-03T14:42:32.469Z,59.97
2018-12-03T14:45:03.272Z,60.20
2018-12-03T14:47:34.274Z,60.26
2018-12-03T14:50:06.295Z,60.34
2018-12-03T14:52:36.991Z,60.67
2018-12-03T14:55:08.739Z,61.49
2018-12-03T14:57:39.479Z,62.14
2018-12-03T15:00:14.290Z,62.79
2018-12-03T15:02:45.214Z,63.00
2018-12-03T15:05:16.395Z,63.12
2018-12-03T15:07:47.107Z,63.27
2018-12-03T15:10:17.892Z,63.68
2018-12-03T15:12:48.912Z,64.18
2018-12-03T15:15:19.707Z,64.41
2018-12-03T15:17:50.633Z,64.52
2018-12-03T15:20:21.373Z,64.67
2018-12-03T15:22:52.099Z,64.34
2018-12-03T15:25:22.812Z,63.73
2018-12-03T15:27:53.837Z,62.94
2018-12-03T15:30:24.548Z,62.94
2018-12-03T15:32:55.212Z,63.17
2018-12-03T15:35:26.197Z,62.78
2018-12-03T15:37:57.196Z,62.64
2018-12-03T15:40:27.907Z,61.62
2018-12-03T15:42:58.655Z,61.66
2018-12-03T15:45:29.646Z,62.09
2018-12-03T15:48:00.326Z,62.49
2018-12-03T15:50:31.031Z,62.64
2018-12-03T15:53:02.269Z,63.05
2018-12-03T15:55:32.974Z,63.18
2018-12-03T15:58:03.650Z,63.42
2018-12-03T16:00:34.360Z,62.98
2018-12-03T16:03:05.050Z,63.07
2018-12-03T16:05:35.897Z,63.36
2018-12-03T16:08:06.592Z,63.76
2018-12-03T16:10:37.330Z,64.08
2018-12-03T16:13:08.388Z,64.37
2018-12-03T16:15:39.317Z,64.79
2018-12-03T16:18:11.962Z,65.05
2018-12-03T16:20:42.680Z,65.17
2018-12-03T16:23:13.406Z,65.37
2018-12-03T16:25:44.672Z,65.24
2018-12-03T16:28:15.712Z,65.14
2018-12-03T16:30:46.461Z,65.18
2018-12-03T16:33:17.467Z,65.45
2018-12-03T16:35:48.591Z,65.65
2018-12-03T16:38:19.299Z,65.86
2018-12-03T16:40:50.069Z,66.07
2018-12-03T16:43:21.259Z,66.26
2018-12-03T16:45:52.531Z,66.46
2018-12-03T16:48:23.627Z,66.58
2018-12-03T16:50:54.361Z,66.64
2018-12-03T16:53:25.197Z,66.85
2018-12-03T16:55:55.992Z,67.04
2018-12-03T16:58:27.020Z,67.35
2018-12-03T17:00:57.902Z,67.58
2018-12-03T17:03:28.632Z,67.82
2018-12-03T17:05:59.363Z,68.17
2018-12-03T17:08:30.118Z,68.32
2018-12-03T17:11:01.074Z,68.43
2018-12-03T17:13:32.423Z,68.26
2018-12-03T17:16:03.384Z,68.11
2018-12-03T17:18:34.160Z,67.64
2018-12-03T17:21:15.000Z,67.61
2018-12-03T17:24:12.454Z,67.73
2018-12-03T17:26:44.304Z,68.11
2018-12-03T17:29:15.040Z,68.71
2018-12-03T17:31:45.823Z,68.86
2018-12-03T17:34:16.717Z,68.79
2018-12-03T17:36:48.037Z,68.68
2018-12-03T17:39:18.953Z,69.07
2018-12-03T17:41:49.876Z,69.41
2018-12-03T17:44:20.549Z,70.02
2018-12-03T17:46:51.549Z,70.15
2018-12-03T17:49:22.322Z,70.21
2018-12-03T17:51:53.127Z,70.26
2018-12-03T17:54:23.855Z,70.30
2018-12-03T17:56:54.962Z,70.36
2018-12-03T17:59:25.675Z,70.43
2018-12-03T18:01:56.630Z,70.47
2018-12-03T18:04:27.376Z,70.64
2018-12-03T18:06:58.215Z,70.91
2018-12-03T18:09:28.947Z,70.89
2018-12-03T18:11:59.748Z,70.68
2018-12-03T18:14:30.809Z,70.51
2018-12-03T18:17:02.126Z,70.26
2018-12-03T18:19:33.555Z,70.11
2018-12-03T18:22:15.755Z,69.96
2018-12-03T18:24:50.306Z,69.83
2018-12-03T18:27:21.047Z,69.75
2018-12-03T18:29:51.821Z,69.76
2018-12-03T18:32:22.866Z,69.78
2018-12-03T18:34:54.014Z,69.65
2018-12-03T18:37:25.143Z,69.65
2018-12-03T18:39:56.116Z,69.87
2018-12-03T18:42:26.825Z,69.96
2018-12-03T18:44:57.482Z,69.89
2018-12-03T18:47:28.184Z,69.96
2018-12-03T18:50:02.879Z,70.03
2018-12-03T18:52:33.961Z,70.30
2018-12-03T18:55:04.715Z,70.25
2018-12-03T18:57:35.486Z,70.30
2018-12-03T19:00:11.217Z,70.75
2018-12-03T19:02:41.969Z,70.75
2018-12-03T19:05:12.661Z,70.70
2018-12-03T19:07:43.419Z,70.52
2018-12-03T19:10:14.098Z,70.39
2018-12-03T19:12:44.867Z,70.26
2018-12-03T19:15:15.670Z,70.11
2018-12-03T19:17:46.687Z,70.03
2018-12-03T19:20:17.379Z,69.94
2018-12-03T19:22:48.087Z,69.79
2018-12-03T19:25:18.761Z,69.61
2018-12-03T19:27:49.436Z,69.41
2018-12-03T19:30:20.136Z,69.23
2018-12-03T19:32:50.832Z,69.15
2018-12-03T19:35:21.571Z,69.02
2018-12-03T19:37:52.600Z,68.94
2018-12-03T19:40:23.311Z,68.87
2018-12-03T19:42:53.990Z,69.00
2018-12-03T19:45:24.671Z,69.17
2018-12-03T19:47:55.392Z,69.69
2018-12-03T19:50:26.104Z,70.03
2018-12-03T19:52:58.116Z,70.13
2018-12-03T19:55:29.909Z,70.46
2018-12-03T19:58:10.202Z,70.55
2018-12-03T20:00:41.841Z,70.80
2018-12-03T20:03:15.566Z,71.02
2018-12-03T20:05:46.884Z,71.17
2018-12-03T20:08:18.495Z,71.40
2018-12-03T20:10:51.800Z,71.53
2018-12-03T20:13:30.819Z,71.57
2018-12-03T20:16:01.738Z,71.83
2018-12-03T20:18:33.929Z,71.82
2018-12-03T20:21:27.761Z,71.88
2018-12-03T20:24:03.772Z,72.02
2018-12-03T20:27:25.864Z,72.17
2018-12-03T20:31:02.468Z,72.33
2018-12-03T20:34:16.913Z,72.63
2018-12-03T20:38:08.807Z,72.75
2018-12-03T20:41:09.438Z,72.82
2018-12-03T20:43:42.480Z,73.05
2018-12-03T20:46:56.924Z,73.14
2018-12-03T20:50:14.679Z,73.31
2018-12-03T20:52:48.013Z,73.56
2018-12-03T20:55:42.827Z,73.73
2018-12-03T20:58:13.520Z,73.90
2018-12-03T21:00:45.104Z,73.96
2018-12-03T21:03:16.917Z,74.01
2018-12-03T21:05:47.565Z,74.04
2018-12-03T21:08:18.577Z,73.98
2018-12-03T21:10:49.581Z,73.86
2018-12-03T21:13:21.475Z,73.56
2018-12-03T21:15:52.218Z,73.30
2018-12-03T21:18:23.270Z,73.12
2018-12-03T21:20:54.770Z,73.07
2018-12-03T21:23:26.190Z,73.14
2018-12-03T21:25:56.886Z,73.26
2018-12-03T21:28:27.865Z,73.37
2018-12-03T21:30:58.794Z,73.33
2018-12-03T21:33:29.629Z,73.46
2018-12-03T21:36:00.756Z,73.53
2018-12-03T21:38:31.463Z,73.52
2018-12-03T21:41:02.196Z,73.40
2018-12-03T21:43:32.943Z,73.32
2018-12-03T21:46:03.660Z,73.33
2018-12-03T21:48:34.654Z,73.31
2018-12-03T21:51:05.370Z,73.28
2018-12-03T21:53:36.089Z,73.04
2018-12-03T21:56:07.079Z,73.03
2018-12-03T21:58:37.789Z,73.01
2018-12-03T22:01:08.548Z,72.93
2018-12-03T22:03:39.266Z,72.97
2018-12-03T22:06:10.017Z,72.86
2018-12-03T22:08:40.708Z,72.76
2018-12-03T22:11:11.718Z,72.78
2018-12-03T22:13:42.446Z,72.71
2018-12-03T22:16:13.759Z,72.77
2018-12-03T22:18:44.462Z,72.63
2018-12-03T22:21:15.464Z,72.55
2018-12-03T22:23:46.199Z,72.42
2018-12-03T22:26:16.938Z,72.35
2018-12-03T22:28:47.688Z,72.14
2018-12-03T22:31:48.654Z,71.72
2018-12-03T22:34:22.873Z,71.83
2018-12-03T22:36:49.214Z,71.75
2018-12-03T22:39:18.388Z,71.87
2018-12-03T22:41:47.640Z,71.92
2018-12-03T22:44:16.842Z,71.76
2018-12-03T22:46:46.032Z,71.38
2018-12-03T22:49:15.260Z,71.42
2018-12-03T22:51:44.428Z,70.85
2018-12-03T22:54:13.718Z,71.15
2018-12-03T22:56:42.939Z,71.34
2018-12-03T22:59:12.072Z,71.35
2018-12-03T23:01:41.267Z,71.46
2018-12-03T23:04:10.470Z,71.29
2018-12-03T23:06:39.631Z,71.32
2018-12-03T23:09:15.790Z,71.44
2018-12-03T23:11:45.003Z,71.31
2018-12-03T23:14:14.269Z,71.57
2018-12-03T23:16:43.528Z,71.62
2018-12-03T23:19:12.768Z,71.52
2018-12-03T23:21:42.008Z,71.49
2018-12-03T23:24:11.205Z,71.36
2018-12-03T23:26:40.400Z,71.56
2018-12-03T23:29:10.254Z,71.41
2018-12-03T23:31:39.453Z,71.49
2018-12-03T23:34:08.754Z,71.36
2018-12-03T23:36:37.997Z,71.72
2018-12-03T23:39:08.504Z,71.80
2018-12-03T23:41:37.740Z,71.75
2018-12-03T23:44:06.959Z,72.02
2018-12-03T23:46:36.217Z,71.55
2018-12-03T23:49:05.434Z,71.95
2018-12-03T23:51:36.297Z,72.53
2018-12-03T23:54:06.344Z,72.97
2018-12-03T23:56:35.522Z,73.33
2018-12-03T23:59:04.745Z,73.61
